createdAt,value
2023-03-16T00:00:23.672Z,9.20
2023-03-16T00:01:23.654Z,10.80
2023-03-16T00:02:23.722Z,12.40
2023-03-16T00:03:23.795Z,13.90
2023-03-16T00:04:23.659Z,14.00
2023-03-16T00:05:23.629Z,16.00
2023-03-16T00:06:25.673Z,14.20
2023-03-16T00:07:23.613Z,15.60
2023-03-16T00:08:23.620Z,11.30
2023-03-16T00:09:23.620Z,10.70
2023-03-16T00:10:23.596Z,11.60
2023-03-16T00:11:23.591Z,13.90
2023-03-16T00:12:23.591Z,10.80
2023-03-16T00:13:23.622Z,11.80
2023-03-16T00:14:23.617Z,13.60
2023-03-16T00:15:23.559Z,13.80
2023-03-16T00:16:23.601Z,12.30
2023-03-16T00:17:23.550Z,12.40
2023-03-16T00:18:23.546Z,14.70
2023-03-16T00:19:23.548Z,10.70
2023-03-16T00:20:23.567Z,10.70
2023-03-16T00:21:23.534Z,13.30
2023-03-16T00:22:23.533Z,9.80
2023-03-16T00:23:23.517Z,9.50
2023-03-16T00:24:23.575Z,9.10
2023-03-16T00:25:23.497Z,10.20
2023-03-16T00:26:23.497Z,12.30
2023-03-16T00:27:23.492Z,11.30
2023-03-16T00:28:23.496Z,10.80
2023-03-16T00:29:23.484Z,9.40
2023-03-16T00:30:23.470Z,12.60
2023-03-16T00:31:23.488Z,12.80
2023-03-16T00:32:23.527Z,10.40
2023-03-16T00:33:23.438Z,10.70
2023-03-16T00:34:23.458Z,9.20
2023-03-16T00:35:23.431Z,10.70
2023-03-16T00:36:23.429Z,10.70
2023-03-16T00:37:23.769Z,13.80
2023-03-16T00:38:23.424Z,10.40
2023-03-16T00:39:23.433Z,10.80
2023-03-16T00:40:23.397Z,10.70
2023-03-16T00:41:23.386Z,10.20
2023-03-16T00:42:23.386Z,10.50
2023-03-16T00:43:23.392Z,13.90
2023-03-16T00:44:23.395Z,10.80
2023-03-16T00:45:23.364Z,10.90
2023-03-16T00:46:23.411Z,10.80
2023-03-16T00:47:23.353Z,11.20
2023-03-16T00:48:23.344Z,11.30
2023-03-16T00:49:23.330Z,9.80
2023-03-16T00:50:23.351Z,9.40
2023-03-16T00:51:23.327Z,11.80
2023-03-16T00:52:23.959Z,10.40
2023-03-16T00:53:23.980Z,11.40
2023-03-16T00:54:23.327Z,10.70
2023-03-16T00:55:23.346Z,8.80
2023-03-16T00:56:23.306Z,11.50
2023-03-16T00:57:23.286Z,10.50
2023-03-16T00:58:23.307Z,11.30
2023-03-16T00:59:23.268Z,12.40
2023-03-16T01:00:23.276Z,10.70
2023-03-16T01:01:23.284Z,12.10
2023-03-16T01:02:23.313Z,10.70
2023-03-16T01:03:23.360Z,13.10
2023-03-16T01:04:23.250Z,12.40
2023-03-16T01:05:23.246Z,10.20
2023-03-16T01:06:23.236Z,10.20
2023-03-16T01:07:23.237Z,10.80
2023-03-16T01:08:23.524Z,10.20
2023-03-16T01:09:23.526Z,10.30
2023-03-16T01:10:23.543Z,10.50
2023-03-16T01:11:23.749Z,10.70
2023-03-16T01:12:24.108Z,14.10
2023-03-16T01:13:23.344Z,10.40
2023-03-16T01:14:23.362Z,9.60
2023-03-16T01:15:24.066Z,11.30
2023-03-16T01:16:24.042Z,10.10
2023-03-16T01:17:23.588Z,10.20
2023-03-16T01:18:23.384Z,11.10
2023-03-16T01:19:23.152Z,9.80
2023-03-16T01:20:24.120Z,11.10
2023-03-16T01:21:23.153Z,9.40
2023-03-16T01:22:23.629Z,7.30
2023-03-16T01:23:24.082Z,7.50
2023-03-16T01:24:23.979Z,10.80
2023-03-16T01:25:23.142Z,9.80
2023-03-16T01:26:23.141Z,9.00
2023-03-16T01:27:23.090Z,9.70
2023-03-16T01:28:23.107Z,10.00
2023-03-16T01:29:23.078Z,10.80
2023-03-16T01:30:23.100Z,9.90
2023-03-16T01:31:23.164Z,8.30
2023-03-16T01:32:23.163Z,7.60
2023-03-16T01:33:23.059Z,8.90
2023-03-16T01:34:23.051Z,9.30
2023-03-16T01:35:23.087Z,11.00
2023-03-16T01:36:23.055Z,10.60
2023-03-16T01:37:23.305Z,10.00
2023-03-16T01:38:23.027Z,9.30
2023-03-16T01:39:23.816Z,8.20
2023-03-16T01:40:23.324Z,12.60
2023-03-16T01:41:23.336Z,10.10
2023-03-16T01:42:23.018Z,10.80
2023-03-16T01:43:23.289Z,10.40
2023-03-16T01:44:23.355Z,9.90
2023-03-16T01:45:23.360Z,9.70
2023-03-16T01:46:24.052Z,9.40
2023-03-16T01:47:23.821Z,9.20
2023-03-16T01:48:24.957Z,8.90
2023-03-16T01:49:23.908Z,9.10
2023-03-16T01:50:23.780Z,9.60
2023-03-16T01:51:23.942Z,9.00
2023-03-16T01:52:23.856Z,10.00
2023-03-16T01:53:23.743Z,12.70
2023-03-16T01:54:23.903Z,8.80
2023-03-16T01:55:22.964Z,7.90
2023-03-16T01:56:22.947Z,10.50
2023-03-16T01:57:22.940Z,11.50
2023-03-16T01:58:22.935Z,10.30
2023-03-16T01:59:23.681Z,8.20
2023-03-16T02:00:22.937Z,8.80
2023-03-16T02:01:22.960Z,11.30
2023-03-16T02:02:23.916Z,9.10
2023-03-16T02:03:23.809Z,10.00
2023-03-16T02:04:23.518Z,9.10
2023-03-16T02:05:23.877Z,9.00
2023-03-16T02:06:23.781Z,8.80
2023-03-16T02:07:22.887Z,11.50
2023-03-16T02:08:22.847Z,10.00
2023-03-16T02:09:22.863Z,10.00
2023-03-16T02:10:24.297Z,10.80
2023-03-16T02:11:22.864Z,8.10
2023-03-16T02:12:23.716Z,8.80
2023-03-16T02:13:23.616Z,8.20
2023-03-16T02:14:22.839Z,9.30
2023-03-16T02:15:22.863Z,10.70
2023-03-16T02:16:22.917Z,7.60
2023-03-16T02:17:22.833Z,7.10
2023-03-16T02:18:22.809Z,6.90
2023-03-16T02:19:23.558Z,8.90
2023-03-16T02:20:23.198Z,6.00
2023-03-16T02:21:23.404Z,8.10
2023-03-16T02:22:22.749Z,5.30
2023-03-16T02:23:22.755Z,6.70
2023-03-16T02:24:23.013Z,8.10
2023-03-16T02:25:22.873Z,8.00
2023-03-16T02:26:23.656Z,7.50
2023-03-16T02:27:23.554Z,6.30
2023-03-16T02:28:23.728Z,7.40
2023-03-16T02:29:22.870Z,6.00
2023-03-16T02:30:22.718Z,7.70
2023-03-16T02:31:23.775Z,6.80
2023-03-16T02:32:23.667Z,7.30
2023-03-16T02:33:22.731Z,6.40
2023-03-16T02:34:23.053Z,7.50
2023-03-16T02:35:22.705Z,7.30
2023-03-16T02:36:23.460Z,5.60
2023-03-16T02:37:22.722Z,6.50
2023-03-16T02:38:23.528Z,6.20
2023-03-16T02:39:22.667Z,5.70
2023-03-16T02:40:23.588Z,7.30
2023-03-16T02:41:24.090Z,9.20
2023-03-16T02:42:23.653Z,7.10
2023-03-16T02:43:23.564Z,7.80
2023-03-16T02:44:22.637Z,6.60
2023-03-16T02:45:23.576Z,6.30
2023-03-16T02:46:22.842Z,7.40
2023-03-16T02:47:23.548Z,5.20
2023-03-16T02:48:22.596Z,8.00
2023-03-16T02:49:23.495Z,5.10
2023-03-16T02:50:23.398Z,7.70
2023-03-16T02:51:23.554Z,6.00
2023-03-16T02:52:23.005Z,6.70
2023-03-16T02:53:23.024Z,6.10
2023-03-16T02:54:23.529Z,8.10
2023-03-16T02:55:22.583Z,8.10
2023-03-16T02:56:22.612Z,8.00
2023-03-16T02:57:23.492Z,7.30
2023-03-16T02:58:22.548Z,7.00
2023-03-16T02:59:22.543Z,6.90
2023-03-16T03:00:22.874Z,8.20
2023-03-16T03:01:23.360Z,6.80
2023-03-16T03:02:22.520Z,8.00
2023-03-16T03:03:23.527Z,6.30
2023-03-16T03:04:22.696Z,7.50
2023-03-16T03:05:22.681Z,5.50
2023-03-16T03:06:23.921Z,4.80
2023-03-16T03:07:22.490Z,5.40
2023-03-16T03:08:22.471Z,6.80
2023-03-16T03:09:22.477Z,6.10
2023-03-16T03:10:22.451Z,8.30
2023-03-16T03:11:23.428Z,7.30
2023-03-16T03:12:23.898Z,9.50
2023-03-16T03:13:23.238Z,5.30
2023-03-16T03:14:23.396Z,7.60
2023-03-16T03:15:23.299Z,6.20
2023-03-16T03:16:22.448Z,9.50
2023-03-16T03:17:22.476Z,6.20
2023-03-16T03:18:22.384Z,7.00
2023-03-16T03:19:23.181Z,6.70
2023-03-16T03:20:22.716Z,7.30
2023-03-16T03:21:22.483Z,7.00
2023-03-16T03:22:22.575Z,5.80
2023-03-16T03:23:22.405Z,5.60
2023-03-16T03:24:23.204Z,7.40
2023-03-16T03:25:23.371Z,5.60
2023-03-16T03:26:22.447Z,6.10
2023-03-16T03:27:23.196Z,7.00
2023-03-16T03:28:22.422Z,7.40
2023-03-16T03:29:22.322Z,8.80
2023-03-16T03:30:22.437Z,5.70
2023-03-16T03:31:23.339Z,5.00
2023-03-16T03:32:22.645Z,7.20
2023-03-16T03:33:22.456Z,6.70
2023-03-16T03:34:22.662Z,6.90
2023-03-16T03:35:22.296Z,6.80
2023-03-16T03:36:22.286Z,5.70
2023-03-16T03:37:22.272Z,7.50
2023-03-16T03:38:22.682Z,6.50
2023-03-16T03:39:22.241Z,6.10
2023-03-16T03:40:23.224Z,6.40
2023-03-16T03:41:22.289Z,7.20
2023-03-16T03:42:23.273Z,5.70
2023-03-16T03:43:23.712Z,9.90
2023-03-16T03:44:22.328Z,6.60
2023-03-16T03:45:22.223Z,6.10
2023-03-16T03:46:22.482Z,6.40
2023-03-16T03:47:22.339Z,8.70
2023-03-16T03:48:22.377Z,7.80
2023-03-16T03:49:22.198Z,6.80
2023-03-16T03:50:23.008Z,7.70
2023-03-16T03:51:22.209Z,8.80
2023-03-16T03:52:22.203Z,6.00
2023-03-16T03:53:22.178Z,6.70
2023-03-16T03:54:22.143Z,10.10
2023-03-16T03:55:23.059Z,7.30
2023-03-16T03:56:22.145Z,6.30
2023-03-16T03:57:23.107Z,6.50
2023-03-16T03:58:23.013Z,6.20
2023-03-16T03:59:22.126Z,9.10
2023-03-16T04:00:23.073Z,8.80
2023-03-16T04:01:22.984Z,7.20
2023-03-16T04:02:23.033Z,8.00
2023-03-16T04:03:22.729Z,6.80
2023-03-16T04:04:22.068Z,7.90
2023-03-16T04:05:22.078Z,6.60
2023-03-16T04:06:22.146Z,5.70
2023-03-16T04:07:22.912Z,6.60
2023-03-16T04:08:22.061Z,6.70
2023-03-16T04:09:22.371Z,6.40
2023-03-16T04:10:22.891Z,7.50
2023-03-16T04:11:22.309Z,8.20
2023-03-16T04:12:22.072Z,7.50
2023-03-16T04:13:22.052Z,6.50
2023-03-16T04:14:23.012Z,7.10
2023-03-16T04:15:22.955Z,5.60
2023-03-16T04:16:22.842Z,5.80
2023-03-16T04:17:22.118Z,7.10
2023-03-16T04:18:22.883Z,6.00
2023-03-16T04:19:22.049Z,7.60
2023-03-16T04:20:21.991Z,7.70
2023-03-16T04:21:22.854Z,6.60
2023-03-16T04:22:22.756Z,8.00
2023-03-16T04:23:22.005Z,9.80
2023-03-16T04:24:22.448Z,7.50
2023-03-16T04:25:22.986Z,7.40
2023-03-16T04:26:21.947Z,5.50
2023-03-16T04:27:22.787Z,5.70
2023-03-16T04:28:22.083Z,8.00
2023-03-16T04:29:21.997Z,6.90
2023-03-16T04:30:22.755Z,8.40
2023-03-16T04:31:22.994Z,7.40
2023-03-16T04:32:22.817Z,7.70
2023-03-16T04:33:22.641Z,6.60
2023-03-16T04:34:21.889Z,5.60
2023-03-16T04:35:21.905Z,7.20
2023-03-16T04:36:22.697Z,7.00
2023-03-16T04:37:21.916Z,7.40
2023-03-16T04:38:22.763Z,6.00
2023-03-16T04:39:22.662Z,6.90
2023-03-16T04:40:21.876Z,7.30
2023-03-16T04:41:21.844Z,7.80
2023-03-16T04:42:21.844Z,7.00
2023-03-16T04:43:21.845Z,6.10
2023-03-16T04:44:22.509Z,6.90
2023-03-16T04:45:22.593Z,8.90
2023-03-16T04:46:21.967Z,6.20
2023-03-16T04:47:21.904Z,7.00
2023-03-16T04:48:21.927Z,5.30
2023-03-16T04:49:22.774Z,7.60
2023-03-16T04:50:21.933Z,5.50
2023-03-16T04:51:21.773Z,6.30
2023-03-16T04:52:21.806Z,5.80
2023-03-16T04:53:21.790Z,7.70
2023-03-16T04:54:22.761Z,5.60
2023-03-16T04:55:21.761Z,8.90
2023-03-16T04:56:21.761Z,5.30
2023-03-16T04:57:22.736Z,8.10
2023-03-16T04:58:22.631Z,5.70
2023-03-16T04:59:21.991Z,7.20
2023-03-16T05:00:21.989Z,7.40
2023-03-16T05:01:22.097Z,6.80
2023-03-16T05:02:21.771Z,5.40
2023-03-16T05:03:22.663Z,6.10
2023-03-16T05:04:22.050Z,7.90
2023-03-16T05:05:21.761Z,6.80
2023-03-16T05:06:21.687Z,8.00
2023-03-16T05:07:21.717Z,5.50
2023-03-16T05:08:21.691Z,7.90
2023-03-16T05:09:21.649Z,5.80
2023-03-16T05:10:22.506Z,4.90
2023-03-16T05:11:21.668Z,6.00
2023-03-16T05:12:22.568Z,6.60
2023-03-16T05:13:22.479Z,7.70
2023-03-16T05:14:21.655Z,8.00
2023-03-16T05:15:21.626Z,5.00
2023-03-16T05:16:21.767Z,10.10
2023-03-16T05:17:21.692Z,6.70
2023-03-16T05:18:21.637Z,6.60
2023-03-16T05:19:21.594Z,6.40
2023-03-16T05:20:21.714Z,7.80
2023-03-16T05:21:21.717Z,7.10
2023-03-16T05:22:21.566Z,7.30
2023-03-16T05:23:21.591Z,6.80
2023-03-16T05:24:21.588Z,9.00
2023-03-16T05:25:21.557Z,8.50
2023-03-16T05:26:21.562Z,6.90
2023-03-16T05:27:21.562Z,6.40
2023-03-16T05:28:21.813Z,5.20
2023-03-16T05:29:22.483Z,6.00
2023-03-16T05:30:21.569Z,7.30
2023-03-16T05:31:21.656Z,5.90
2023-03-16T05:32:21.502Z,6.60
2023-03-16T05:33:21.608Z,5.90
2023-03-16T05:34:22.515Z,7.30
2023-03-16T05:35:23.717Z,5.20
2023-03-16T05:36:21.491Z,7.00
2023-03-16T05:37:22.484Z,7.40
2023-03-16T05:38:21.528Z,8.10
2023-03-16T05:39:21.482Z,10.00
2023-03-16T05:40:21.451Z,8.30
2023-03-16T05:41:21.478Z,6.40
2023-03-16T05:42:21.460Z,7.70
2023-03-16T05:43:22.423Z,7.50
2023-03-16T05:44:21.443Z,9.50
2023-03-16T05:45:21.472Z,7.50
2023-03-16T05:46:21.517Z,7.50
2023-03-16T05:47:22.291Z,8.90
2023-03-16T05:48:21.420Z,9.00
2023-03-16T05:49:21.411Z,9.00
2023-03-16T05:50:21.390Z,7.00
2023-03-16T05:51:21.419Z,6.60
2023-03-16T05:52:21.403Z,8.00
2023-03-16T05:53:21.390Z,8.20
2023-03-16T05:54:21.379Z,7.50
2023-03-16T05:55:21.363Z,9.60
2023-03-16T05:56:21.378Z,7.20
2023-03-16T05:57:21.370Z,7.90
2023-03-16T05:58:21.357Z,6.10
2023-03-16T05:59:22.165Z,6.20
2023-03-16T06:00:22.305Z,6.80
2023-03-16T06:01:21.438Z,7.80
2023-03-16T06:02:22.048Z,5.50
2023-03-16T06:03:21.305Z,6.30
2023-03-16T06:04:21.357Z,7.40
2023-03-16T06:05:21.485Z,5.40
2023-03-16T06:06:21.624Z,6.80
2023-03-16T06:07:21.278Z,7.10
2023-03-16T06:08:22.059Z,7.50
2023-03-16T06:09:21.275Z,6.50
2023-03-16T06:10:22.128Z,5.90
2023-03-16T06:11:22.025Z,4.90
2023-03-16T06:12:21.288Z,4.80
2023-03-16T06:13:22.091Z,5.40
2023-03-16T06:14:22.255Z,6.20
2023-03-16T06:15:22.153Z,6.20
2023-03-16T06:16:21.311Z,6.00
2023-03-16T06:17:22.220Z,5.30
2023-03-16T06:18:21.221Z,5.60
2023-03-16T06:19:21.211Z,4.80
2023-03-16T06:20:22.162Z,4.60
2023-03-16T06:21:22.093Z,6.80
2023-03-16T06:22:21.209Z,8.50
2023-03-16T06:23:22.156Z,6.10
2023-03-16T06:24:21.448Z,6.90
2023-03-16T06:25:21.140Z,4.20
2023-03-16T06:26:22.600Z,6.80
2023-03-16T06:27:22.030Z,4.40
2023-03-16T06:28:21.160Z,6.00
2023-03-16T06:29:22.091Z,5.60
2023-03-16T06:30:21.159Z,4.60
2023-03-16T06:31:21.200Z,5.30
2023-03-16T06:32:21.119Z,3.90
2023-03-16T06:33:21.959Z,4.30
2023-03-16T06:34:21.130Z,5.50
2023-03-16T06:35:22.058Z,4.70
2023-03-16T06:36:21.127Z,4.80
2023-03-16T06:37:21.469Z,4.70
2023-03-16T06:38:21.998Z,5.80
2023-03-16T06:39:21.903Z,4.50
2023-03-16T06:40:21.627Z,6.70
2023-03-16T06:41:21.316Z,4.60
2023-03-16T06:42:21.868Z,6.40
2023-03-16T06:43:22.035Z,6.60
2023-03-16T06:44:21.928Z,5.70
2023-03-16T06:45:21.836Z,3.80
2023-03-16T06:46:21.111Z,5.50
2023-03-16T06:47:21.898Z,4.60
2023-03-16T06:48:21.811Z,3.90
2023-03-16T06:49:21.107Z,5.80
2023-03-16T06:50:21.066Z,3.50
2023-03-16T06:51:21.766Z,3.30
2023-03-16T06:52:21.925Z,3.70
2023-03-16T06:53:21.876Z,6.60
2023-03-16T06:54:21.743Z,5.80
2023-03-16T06:55:21.644Z,3.20
2023-03-16T06:56:21.806Z,6.80
2023-03-16T06:57:21.704Z,3.50
2023-03-16T06:58:21.864Z,5.80
2023-03-16T06:59:21.773Z,3.90
2023-03-16T07:00:20.917Z,4.40
2023-03-16T07:01:20.944Z,3.20
2023-03-16T07:02:21.153Z,5.30
2023-03-16T07:03:20.892Z,2.80
2023-03-16T07:04:21.536Z,4.80
2023-03-16T07:05:21.711Z,3.70
2023-03-16T07:06:20.911Z,4.10
2023-03-16T07:07:20.900Z,3.30
2023-03-16T07:08:20.869Z,4.50
2023-03-16T07:09:20.858Z,4.30
2023-03-16T07:10:21.739Z,6.80
2023-03-16T07:11:21.096Z,5.40
2023-03-16T07:12:21.058Z,5.00
2023-03-16T07:13:21.323Z,3.60
2023-03-16T07:14:20.900Z,5.10
2023-03-16T07:15:21.808Z,6.50
2023-03-16T07:16:21.756Z,3.80
2023-03-16T07:17:21.578Z,5.20
2023-03-16T07:18:21.220Z,4.80
2023-03-16T07:19:20.784Z,5.60
2023-03-16T07:20:23.421Z,5.20
2023-03-16T07:21:21.712Z,4.60
2023-03-16T07:22:20.905Z,6.00
2023-03-16T07:23:20.768Z,3.00
2023-03-16T07:24:20.863Z,4.90
2023-03-16T07:25:21.586Z,5.00
2023-03-16T07:26:20.892Z,5.20
2023-03-16T07:27:20.767Z,3.90
2023-03-16T07:28:20.771Z,4.00
2023-03-16T07:29:21.701Z,4.00
2023-03-16T07:30:21.679Z,4.90
2023-03-16T07:31:20.812Z,4.80
2023-03-16T07:32:20.789Z,5.30
2023-03-16T07:33:21.671Z,3.80
2023-03-16T07:34:21.730Z,4.90
2023-03-16T07:35:20.668Z,3.70
2023-03-16T07:36:20.908Z,5.20
2023-03-16T07:37:25.285Z,4.50
2023-03-16T07:38:20.684Z,4.40
2023-03-16T07:39:20.639Z,4.30
2023-03-16T07:40:20.667Z,5.90
2023-03-16T07:41:20.638Z,5.00
2023-03-16T07:42:21.479Z,7.20
2023-03-16T07:43:21.639Z,5.90
2023-03-16T07:44:20.638Z,4.20
2023-03-16T07:45:20.731Z,4.50
2023-03-16T07:46:21.648Z,5.00
2023-03-16T07:47:20.718Z,4.50
2023-03-16T07:48:21.162Z,6.00
2023-03-16T07:49:21.577Z,5.80
2023-03-16T07:50:20.745Z,5.30
2023-03-16T07:51:21.403Z,6.50
2023-03-16T07:52:20.595Z,8.00
2023-03-16T07:53:22.006Z,5.50
2023-03-16T07:54:20.557Z,7.10
2023-03-16T07:55:21.511Z,6.40
2023-03-16T07:56:21.122Z,5.00
2023-03-16T07:57:20.800Z,4.70
2023-03-16T07:58:20.514Z,5.30
2023-03-16T07:59:21.386Z,5.10
2023-03-16T08:00:20.592Z,4.50
2023-03-16T08:01:20.500Z,6.10
2023-03-16T08:02:20.586Z,6.80
2023-03-16T08:03:20.535Z,4.90
2023-03-16T08:04:21.242Z,5.60
2023-03-16T08:05:20.541Z,4.80
2023-03-16T08:06:21.478Z,6.40
2023-03-16T08:07:21.406Z,5.90
2023-03-16T08:08:21.293Z,7.20
2023-03-16T08:09:20.471Z,4.90
2023-03-16T08:10:21.896Z,6.80
2023-03-16T08:11:21.261Z,6.10
2023-03-16T08:12:21.412Z,6.30
2023-03-16T08:13:21.323Z,4.60
2023-03-16T08:14:21.302Z,5.40
2023-03-16T08:15:20.412Z,4.20
2023-03-16T08:16:22.165Z,5.20
2023-03-16T08:17:21.193Z,6.30
2023-03-16T08:18:21.388Z,6.20
2023-03-16T08:19:21.263Z,6.70
2023-03-16T08:20:21.204Z,5.70
2023-03-16T08:21:21.322Z,5.90
2023-03-16T08:22:20.392Z,5.10
2023-03-16T08:23:20.370Z,5.40
2023-03-16T08:24:21.511Z,4.50
2023-03-16T08:25:21.194Z,5.40
2023-03-16T08:26:21.657Z,6.70
2023-03-16T08:27:21.275Z,4.30
2023-03-16T08:28:21.176Z,5.20
2023-03-16T08:29:21.333Z,6.40
2023-03-16T08:30:20.811Z,5.40
2023-03-16T08:31:20.374Z,4.80
2023-03-16T08:32:21.315Z,6.20
2023-03-16T08:33:22.656Z,6.20
2023-03-16T08:34:20.642Z,7.40
2023-03-16T08:35:21.262Z,7.60
2023-03-16T08:36:20.310Z,5.20
2023-03-16T08:37:21.060Z,4.70
2023-03-16T08:38:21.240Z,7.40
2023-03-16T08:39:21.129Z,4.70
2023-03-16T08:40:20.278Z,4.80
2023-03-16T08:41:21.211Z,5.10
2023-03-16T08:42:20.396Z,6.40
2023-03-16T08:43:21.000Z,7.70
2023-03-16T08:44:21.159Z,4.40
2023-03-16T08:45:21.657Z,5.20
2023-03-16T08:46:20.254Z,6.10
2023-03-16T08:47:21.131Z,5.40
2023-03-16T08:48:20.215Z,5.80
2023-03-16T08:49:20.187Z,5.40
2023-03-16T08:50:20.196Z,5.40
2023-03-16T08:51:20.635Z,4.80
2023-03-16T08:52:21.155Z,5.50
2023-03-16T08:53:20.166Z,4.90
2023-03-16T08:54:20.900Z,5.30
2023-03-16T08:55:21.123Z,4.90
2023-03-16T08:56:21.035Z,4.60
2023-03-16T08:57:20.941Z,5.40
2023-03-16T08:58:21.095Z,4.70
2023-03-16T08:59:29.889Z,6.10
2023-03-16T09:00:20.198Z,5.50
2023-03-16T09:01:21.074Z,6.30
2023-03-16T09:02:20.103Z,4.10
2023-03-16T09:03:20.075Z,4.80
2023-03-16T09:04:21.060Z,5.50
2023-03-16T09:05:20.939Z,4.10
2023-03-16T09:06:20.101Z,3.90
2023-03-16T09:07:20.093Z,4.60
2023-03-16T09:08:20.901Z,5.20
2023-03-16T09:09:20.041Z,4.90
2023-03-16T09:10:20.089Z,4.20
2023-03-16T09:11:20.058Z,4.70
2023-03-16T09:12:20.159Z,5.70
2023-03-16T09:13:20.185Z,4.20
2023-03-16T09:14:20.036Z,5.80
2023-03-16T09:15:20.307Z,4.10
2023-03-16T09:16:20.036Z,5.40
2023-03-16T09:17:20.001Z,4.60
2023-03-16T09:18:20.985Z,7.10
2023-03-16T09:19:20.876Z,5.00
2023-03-16T09:20:34.914Z,4.30
2023-03-16T09:21:19.952Z,4.10
2023-03-16T09:22:20.029Z,5.70
2023-03-16T09:23:20.739Z,5.80
2023-03-16T09:24:20.898Z,5.00
2023-03-16T09:25:19.972Z,4.40
2023-03-16T09:26:19.926Z,5.00
2023-03-16T09:27:21.065Z,3.80
2023-03-16T09:28:22.079Z,6.20
2023-03-16T09:29:19.904Z,4.00
2023-03-16T09:30:20.836Z,4.10
2023-03-16T09:31:20.118Z,5.40
2023-03-16T09:32:19.876Z,5.30
2023-03-16T09:33:19.895Z,4.60
2023-03-16T09:34:19.863Z,3.70
2023-03-16T09:35:20.028Z,3.80
2023-03-16T09:36:20.914Z,4.90
2023-03-16T09:37:19.957Z,3.40
2023-03-16T09:38:20.794Z,4.80
2023-03-16T09:39:19.915Z,5.20
2023-03-16T09:40:19.859Z,3.70
2023-03-16T09:41:20.804Z,4.20
2023-03-16T09:42:20.711Z,4.00
2023-03-16T09:43:19.824Z,6.00
2023-03-16T09:44:20.162Z,4.00
2023-03-16T09:45:19.773Z,4.40
2023-03-16T09:46:19.868Z,5.80
2023-03-16T09:47:19.817Z,4.30
2023-03-16T09:48:19.763Z,3.70
2023-03-16T09:49:20.556Z,4.00
2023-03-16T09:50:20.225Z,3.80
2023-03-16T09:51:19.776Z,3.70
2023-03-16T09:52:19.722Z,4.60
2023-03-16T09:53:19.726Z,4.60
2023-03-16T09:54:20.584Z,6.00
2023-03-16T09:55:20.492Z,3.60
2023-03-16T09:56:19.734Z,3.60
2023-03-16T09:57:19.799Z,3.70
2023-03-16T09:58:20.710Z,5.30
2023-03-16T09:59:20.611Z,5.00
2023-03-16T10:00:19.685Z,4.00
2023-03-16T10:01:20.748Z,4.70
2023-03-16T10:02:19.794Z,4.40
2023-03-16T10:03:19.663Z,3.70
2023-03-16T10:04:19.775Z,4.90
2023-03-16T10:05:20.587Z,3.70
2023-03-16T10:06:20.453Z,4.00
2023-03-16T10:07:20.612Z,4.20
2023-03-16T10:08:20.519Z,4.50
2023-03-16T10:09:20.431Z,3.50
2023-03-16T10:10:20.579Z,4.10
2023-03-16T10:11:20.488Z,4.70
2023-03-16T10:12:19.640Z,3.10
2023-03-16T10:13:20.548Z,4.30
2023-03-16T10:14:20.469Z,4.10
2023-03-16T10:15:20.138Z,4.50
2023-03-16T10:16:19.617Z,4.70
2023-03-16T10:17:20.421Z,4.70
2023-03-16T10:18:20.581Z,3.30
2023-03-16T10:19:20.109Z,3.40
2023-03-16T10:20:20.385Z,4.10
2023-03-16T10:21:20.558Z,6.60
2023-03-16T10:22:19.537Z,4.40
2023-03-16T10:23:19.936Z,6.10
2023-03-16T10:24:20.956Z,4.90
2023-03-16T10:25:20.457Z,4.60
2023-03-16T10:26:20.158Z,4.70
2023-03-16T10:27:19.551Z,5.20
2023-03-16T10:28:19.967Z,3.20
2023-03-16T10:29:20.298Z,4.00
2023-03-16T10:30:19.484Z,3.80
2023-03-16T10:31:20.452Z,4.50
2023-03-16T10:32:19.490Z,5.80
2023-03-16T10:33:19.509Z,5.30
2023-03-16T10:34:20.412Z,4.00
2023-03-16T10:35:20.224Z,4.20
2023-03-16T10:36:19.762Z,5.30
2023-03-16T10:37:19.856Z,4.70
2023-03-16T10:38:20.194Z,6.00
2023-03-16T10:39:20.368Z,4.60
2023-03-16T10:40:20.290Z,5.20
2023-03-16T10:41:19.430Z,5.10
2023-03-16T10:42:19.431Z,5.10
2023-03-16T10:43:20.259Z,4.50
2023-03-16T10:44:20.390Z,3.70
2023-03-16T10:45:20.295Z,4.80
2023-03-16T10:46:19.564Z,4.40
2023-03-16T10:47:20.404Z,5.90
2023-03-16T10:48:20.276Z,4.60
2023-03-16T10:49:19.362Z,3.00
2023-03-16T10:50:20.350Z,4.10
2023-03-16T10:51:20.239Z,4.10
2023-03-16T10:52:19.336Z,5.10
2023-03-16T10:53:20.299Z,2.70
2023-03-16T10:54:19.327Z,4.20
2023-03-16T10:55:20.106Z,4.10
2023-03-16T10:56:20.272Z,3.90
2023-03-16T10:57:19.326Z,5.00
2023-03-16T10:58:20.090Z,3.60
2023-03-16T10:59:20.236Z,4.70
2023-03-16T11:00:20.144Z,3.60
2023-03-16T11:01:20.085Z,3.30
2023-03-16T11:02:20.207Z,4.10
2023-03-16T11:03:19.958Z,6.40
2023-03-16T11:04:20.283Z,5.90
2023-03-16T11:05:20.177Z,5.30
2023-03-16T11:06:20.080Z,4.50
2023-03-16T11:07:20.236Z,4.30
2023-03-16T11:08:20.146Z,3.20
2023-03-16T11:09:19.207Z,4.40
2023-03-16T11:10:20.209Z,4.20
2023-03-16T11:11:19.276Z,4.70
2023-03-16T11:12:19.205Z,3.40
2023-03-16T11:13:19.679Z,4.10
2023-03-16T11:14:20.076Z,4.90
2023-03-16T11:15:25.853Z,3.30
2023-03-16T11:16:19.777Z,3.00
2023-03-16T11:17:19.204Z,5.80
2023-03-16T11:18:19.942Z,4.90
2023-03-16T11:19:19.766Z,3.90
2023-03-16T11:20:20.576Z,3.40
2023-03-16T11:21:19.129Z,4.60
2023-03-16T11:22:19.267Z,5.10
2023-03-16T11:23:19.986Z,3.60
2023-03-16T11:24:19.924Z,5.60
2023-03-16T11:25:19.091Z,3.30
2023-03-16T11:26:19.182Z,3.20
2023-03-16T11:27:20.117Z,5.60
2023-03-16T11:28:19.096Z,5.40
2023-03-16T11:29:19.916Z,4.30
2023-03-16T11:30:19.077Z,4.30
2023-03-16T11:31:20.038Z,3.40
2023-03-16T11:32:19.892Z,3.80
2023-03-16T11:33:19.059Z,4.00
2023-03-16T11:34:19.945Z,3.40
2023-03-16T11:35:19.067Z,5.40
2023-03-16T11:36:19.071Z,4.50
2023-03-16T11:37:19.014Z,4.00
2023-03-16T11:38:19.020Z,4.70
2023-03-16T11:39:19.067Z,4.00
2023-03-16T11:40:19.042Z,4.80
2023-03-16T11:41:19.829Z,3.50
2023-03-16T11:42:19.945Z,4.50
2023-03-16T11:43:18.989Z,5.50
2023-03-16T11:44:19.775Z,2.50
2023-03-16T11:45:19.920Z,4.60
2023-03-16T11:46:19.875Z,5.20
2023-03-16T11:47:18.975Z,3.60
2023-03-16T11:48:18.963Z,3.30
2023-03-16T11:49:19.111Z,3.70
2023-03-16T11:50:19.959Z,2.30
2023-03-16T11:51:19.863Z,4.70
2023-03-16T11:52:19.753Z,4.90
2023-03-16T11:53:19.013Z,4.40
2023-03-16T11:54:20.362Z,2.60
2023-03-16T11:55:19.724Z,5.00
2023-03-16T11:56:18.898Z,3.30
2023-03-16T11:57:19.819Z,2.50
2023-03-16T11:58:18.888Z,3.90
2023-03-16T11:59:19.848Z,3.90
2023-03-16T12:00:19.796Z,3.40
2023-03-16T12:01:18.853Z,4.90
2023-03-16T12:02:19.888Z,3.50
2023-03-16T12:03:19.755Z,4.80
2023-03-16T12:04:19.692Z,3.00
2023-03-16T12:05:20.277Z,4.80
2023-03-16T12:06:22.875Z,3.80
2023-03-16T12:07:18.813Z,5.40
2023-03-16T12:08:18.803Z,2.80
2023-03-16T12:09:19.656Z,4.90
2023-03-16T12:10:19.435Z,3.80
2023-03-16T12:11:19.723Z,5.80
2023-03-16T12:12:19.439Z,3.40
2023-03-16T12:13:19.785Z,5.10
2023-03-16T12:14:19.745Z,4.30
2023-03-16T12:15:18.764Z,5.90
2023-03-16T12:16:18.783Z,3.80
2023-03-16T12:17:18.860Z,4.70
2023-03-16T12:18:18.737Z,3.40
2023-03-16T12:19:19.717Z,3.60
2023-03-16T12:20:19.617Z,5.40
2023-03-16T12:21:18.739Z,3.50
2023-03-16T12:22:18.735Z,4.80
2023-03-16T12:23:19.600Z,4.10
2023-03-16T12:24:19.325Z,4.60
2023-03-16T12:25:18.665Z,4.10
2023-03-16T12:26:19.559Z,5.50
2023-03-16T12:27:18.757Z,5.10
2023-03-16T12:28:18.692Z,6.00
2023-03-16T12:29:19.524Z,6.30
2023-03-16T12:30:18.975Z,6.20
2023-03-16T12:31:19.614Z,5.10
2023-03-16T12:32:19.501Z,4.00
2023-03-16T12:33:19.392Z,4.60
2023-03-16T12:34:18.613Z,4.20
2023-03-16T12:35:18.606Z,3.00
2023-03-16T12:36:18.623Z,3.80
2023-03-16T12:37:18.579Z,4.00
2023-03-16T12:38:18.594Z,4.60
2023-03-16T12:39:19.332Z,3.90
2023-03-16T12:40:18.568Z,2.70
2023-03-16T12:41:18.582Z,4.40
2023-03-16T12:42:19.614Z,5.20
2023-03-16T12:43:18.633Z,4.30
2023-03-16T12:44:19.362Z,3.80
2023-03-16T12:45:19.528Z,4.60
2023-03-16T12:46:19.521Z,4.80
2023-03-16T12:47:19.329Z,4.10
2023-03-16T12:48:19.127Z,4.30
2023-03-16T12:49:19.392Z,5.50
2023-03-16T12:50:19.292Z,5.10
2023-03-16T12:51:19.451Z,6.80
2023-03-16T12:52:19.361Z,4.50
2023-03-16T12:53:18.482Z,5.80
2023-03-16T12:54:19.459Z,4.80
2023-03-16T12:55:19.336Z,5.90
2023-03-16T12:56:18.494Z,4.70
2023-03-16T12:57:18.928Z,6.30
2023-03-16T12:58:18.731Z,5.90
2023-03-16T12:59:18.460Z,4.50
2023-03-16T13:00:19.371Z,7.40
2023-03-16T13:01:18.484Z,5.70
2023-03-16T13:02:19.531Z,8.00
2023-03-16T13:03:18.524Z,5.80
2023-03-16T13:04:18.437Z,3.90
2023-03-16T13:05:19.408Z,5.90
2023-03-16T13:06:19.301Z,4.50
2023-03-16T13:07:19.200Z,4.50
2023-03-16T13:08:18.374Z,4.60
2023-03-16T13:09:19.268Z,6.40
2023-03-16T13:10:19.178Z,5.30
2023-03-16T13:11:19.331Z,5.60
2023-03-16T13:12:18.624Z,5.20
2023-03-16T13:13:18.339Z,5.30
2023-03-16T13:14:19.331Z,5.80
2023-03-16T13:15:19.207Z,3.70